Time;durP1;ratioP1;P1;durP2;ratioP2;P2;SDS_P1;SDS_P2;PMS_P1;PMS_P2;Temp;Humidity;BMP_temperature;BMP_pressure;BME280_temperature;BME280_humidity;BME280_pressure;Samples;Min_cycle;Max_cycle;Signal;HPM_P1;HPM_P2
2023/08/31 00:00:04;;;;;;;;;;;;;;;25.13;69.18;96376.35;619898;229;62736;-63
2023/08/31 00:02:33;;;;;;;;;;;;;;;25.12;69.16;96369.38;619973;229;47172;-63
2023/08/31 00:05:01;;;;;;;;;;;;;;;25.11;69.17;96373.17;619952;229;67032;-64
2023/08/31 00:07:28;;;;;;;;;;;;;;;25.11;69.27;96379.34;620163;228;64810;-64
2023/08/31 00:09:56;;;;;;;;;;;;;;;25.12;69.25;96380.13;620695;228;67447;-60
2023/08/31 00:12:23;;;;;;;;;;;;;;;25.11;69.28;96376.65;621729;227;66981;-60
2023/08/31 00:14:51;;;;;;;;;;;;;;;25.11;69.21;96384.72;620027;228;65470;-60
2023/08/31 00:17:18;;;;;;;;;;;;;;;25.11;69.25;96373.17;621714;228;66952;-60
2023/08/31 00:19:46;;;;;;;;;;;;;;;25.11;69.23;96371.27;620472;228;64608;-60
2023/08/31 00:22:14;;;;;;;;;;;;;;;25.11;69.20;96376.65;621867;227;62917;-60
2023/08/31 00:24:42;;;;;;;;;;;;;;;25.11;69.11;96373.17;621401;227;67071;-60
2023/08/31 00:27:10;;;;;;;;;;;;;;;25.11;68.95;96378.55;621480;227;66457;-60
2023/08/31 00:29:38;;;;;;;;;;;;;;;25.11;69.05;96378.55;620019;228;62651;-60
2023/08/31 00:32:07;;;;;;;;;;;;;;;25.10;69.04;96383.14;620586;228;64729;-64
2023/08/31 00:34:35;;;;;;;;;;;;;;;25.10;69.22;96385.02;620259;228;67021;-63
2023/08/31 00:37:02;;;;;;;;;;;;;;;25.10;69.03;96385.83;620839;228;62650;-63
2023/08/31 00:39:33;;;;;;;;;;;;;;;25.10;68.99;96387.70;622132;227;65635;-64
2023/08/31 00:42:00;;;;;;;;;;;;;;;25.09;68.97;96391.51;622587;227;65299;-64
2023/08/31 00:44:28;;;;;;;;;;;;;;;25.09;68.81;96388.82;620759;228;64560;-64
2023/08/31 00:46:56;;;;;;;;;;;;;;;25.08;68.56;96388.03;620414;228;66814;-63
2023/08/31 00:49:23;;;;;;;;;;;;;;;25.07;68.20;96386.43;621116;228;64880;-64
2023/08/31 00:51:51;;;;;;;;;;;;;;;25.06;67.78;96387.55;621316;227;65292;-64
2023/08/31 00:54:20;;;;;;;;;;;;;;;25.07;68.00;96372.20;620362;228;64490;-60
2023/08/31 00:56:51;;;;;;;;;;;;;;;25.07;67.85;96375.67;620463;228;64702;-60
2023/08/31 00:59:19;;;;;;;;;;;;;;;25.07;68.15;96378.37;620098;228;63790;-60
2023/08/31 01:01:54;;;;;;;;;;;;;;;25.07;68.16;96380.27;620152;228;65300;-60
2023/08/31 01:04:24;;;;;;;;;;;;;;;25.06;68.12;96376.80;619893;228;44712;-59
2023/08/31 01:07:11;;;;;;;;;;;;;;;25.06;68.15;96374.11;620565;228;65922;-59
2023/08/31 01:09:59;;;;;;;;;;;;;;;25.06;68.33;96379.48;621468;227;67945;-60
2023/08/31 01:12:30;;;;;;;;;;;;;;;25.05;68.33;96385.97;620247;228;64695;-60
2023/08/31 01:14:59;;;;;;;;;;;;;;;25.05;68.50;96383.28;621853;228;62838;-60
2023/08/31 01:17:28;;;;;;;;;;;;;;;25.05;68.50;96379.81;621874;227;64833;-60
2023/08/31 01:19:57;;;;;;;;;;;;;;;25.05;68.36;96379.81;620125;228;67259;-60
2023/08/31 01:22:35;;;;;;;;;;;;;;;25.05;68.35;96388.66;619884;229;62980;-60
2023/08/31 01:25:04;;;;;;;;;;;;;;;25.05;68.45;96398.63;620003;228;64632;-59
2023/08/31 01:27:32;;;;;;;;;;;;;;;25.05;68.43;96390.56;620334;228;64816;-59
2023/08/31 01:29:59;;;;;;;;;;;;;;;25.04;68.44;96395.13;620522;228;62649;-59
2023/08/31 01:32:28;;;;;;;;;;;;;;;25.04;68.46;96395.13;621668;227;67369;-59
2023/08/31 01:35:01;;;;;;;;;;;;;;;25.03;68.54;96397.02;619833;229;66890;-59
2023/08/31 01:37:29;;;;;;;;;;;;;;;25.03;68.54;96394.34;619727;229;65042;-59
2023/08/31 01:39:59;;;;;;;;;;;;;;;25.04;68.46;96395.13;619786;229;67141;-59
2023/08/31 01:42:28;;;;;;;;;;;;;;;25.04;68.55;96403.19;620679;228;64459;-59
2023/08/31 01:44:57;;;;;;;;;;;;;;;25.03;68.38;96402.41;619873;229;66139;-59
2023/08/31 01:47:26;;;;;;;;;;;;;;;25.03;68.35;96397.02;619883;229;64663;-59
2023/08/31 01:49:53;;;;;;;;;;;;;;;25.04;68.28;96397.81;619845;229;66409;-59
2023/08/31 01:52:21;;;;;;;;;;;;;;;25.02;68.39;96395.45;619862;229;62639;-59
2023/08/31 01:54:49;;;;;;;;;;;;;;;25.03;68.29;96393.55;619885;229;67389;-59
2023/08/31 01:57:17;;;;;;;;;;;;;;;25.03;68.35;96396.23;619848;229;64886;-59
2023/08/31 01:59:46;;;;;;;;;;;;;;;25.03;68.28;96396.23;622361;227;42442;-59
2023/08/31 02:02:14;;;;;;;;;;;;;;;25.02;68.24;96400.83;620556;228;67233;-59
2023/08/31 02:04:42;;;;;;;;;;;;;;;25.02;68.31;96394.67;620498;228;65810;-59
2023/08/31 02:07:10;;;;;;;;;;;;;;;25.02;68.28;96400.83;620114;228;65213;-59
2023/08/31 02:09:38;;;;;;;;;;;;;;;25.02;68.12;96408.89;620462;228;66637;-59
2023/08/31 02:12:05;;;;;;;;;;;;;;;25.02;68.24;96408.89;620113;228;67257;-59
2023/08/31 02:14:33;;;;;;;;;;;;;;;25.02;68.20;96402.73;620372;228;64918;-59
2023/08/31 02:17:01;;;;;;;;;;;;;;;25.02;68.09;96403.52;619990;228;66055;-59
2023/08/31 02:19:29;;;;;;;;;;;;;;;25.01;68.06;96399.23;622062;227;66884;-59
2023/08/31 02:21:56;;;;;;;;;;;;;;;25.02;67.77;96402.73;619974;228;64992;-59
2023/08/31 02:24:24;;;;;;;;;;;;;;;25.01;67.82;96401.91;619867;229;67969;-59
2023/08/31 02:26:52;;;;;;;;;;;;;;;25.01;67.91;96395.75;619103;227;67359;-59
2023/08/31 02:29:20;;;;;;;;;;;;;;;25.01;67.89;96396.54;619952;225;62626;-59
2023/08/31 02:31:47;;;;;;;;;;;;;;;25.01;67.51;96399.23;622176;227;64690;-59
2023/08/31 02:34:15;;;;;;;;;;;;;;;25.01;67.83;96399.23;618619;225;67111;-59
2023/08/31 02:36:42;;;;;;;;;;;;;;;25.00;67.96;96397.66;620984;228;62647;-59
2023/08/31 02:39:10;;;;;;;;;;;;;;;25.01;68.08;96406.50;620542;228;67913;-59
2023/08/31 02:41:38;;;;;;;;;;;;;;;25.00;67.98;96400.34;620648;228;64883;-59
2023/08/31 02:44:05;;;;;;;;;;;;;;;25.00;67.94;96405.72;620598;228;65046;-59
2023/08/31 02:46:33;;;;;;;;;;;;;;;25.00;67.69;96404.93;620056;228;67044;-59
2023/08/31 02:49:00;;;;;;;;;;;;;;;25.00;67.74;96400.34;619919;229;64509;-59
2023/08/31 02:51:28;;;;;;;;;;;;;;;25.00;67.82;96404.93;619908;229;65269;-59
2023/08/31 02:53:56;;;;;;;;;;;;;;;25.00;67.83;96403.03;620676;228;67282;-59
2023/08/31 02:56:23;;;;;;;;;;;;;;;24.99;67.78;96393.39;619948;229;64611;-59
2023/08/31 02:58:51;;;;;;;;;;;;;;;24.99;67.62;96401.45;620269;228;65213;-59
2023/08/31 03:01:18;;;;;;;;;;;;;;;24.99;67.60;96400.64;620100;228;67979;-59
2023/08/31 03:03:47;;;;;;;;;;;;;;;24.99;67.55;96400.64;619897;228;68004;-60
2023/08/31 03:06:15;;;;;;;;;;;;;;;24.99;67.16;96404.14;620386;228;62622;-60
2023/08/31 03:08:43;;;;;;;;;;;;;;;24.98;67.09;96402.54;620672;228;67381;-60
2023/08/31 03:11:10;;;;;;;;;;;;;;;24.99;67.04;96406.02;620098;228;64990;-60
2023/08/31 03:13:38;;;;;;;;;;;;;;;24.98;67.12;96402.54;620290;228;62628;-60
2023/08/31 03:16:05;;;;;;;;;;;;;;;24.99;66.86;96404.14;619912;229;67681;-60
2023/08/31 03:18:33;;;;;;;;;;;;;;;24.99;67.30;96408.70;619909;229;64965;-60
2023/08/31 03:21:01;;;;;;;;;;;;;;;24.98;66.87;96413.30;618392;229;65758;-60
2023/08/31 03:23:29;;;;;;;;;;;;;;;24.98;66.88;96417.88;620731;228;64421;-60
2023/08/31 03:25:57;;;;;;;;;;;;;;;24.97;66.65;96417.09;620273;228;67109;-60
2023/08/31 03:28:26;;;;;;;;;;;;;;;24.97;66.57;96421.69;620024;228;63802;-60
2023/08/31 03:30:57;;;;;;;;;;;;;;;24.97;66.63;96422.47;619873;229;67565;-60
2023/08/31 03:33:25;;;;;;;;;;;;;;;24.96;66.86;96423.59;619917;229;66955;-60
2023/08/31 03:35:52;;;;;;;;;;;;;;;24.97;66.87;96438.60;619853;229;63872;-60
2023/08/31 03:38:20;;;;;;;;;;;;;;;24.96;66.75;96434.34;619968;229;64916;-59
2023/08/31 03:40:54;;;;;;;;;;;;;;;24.96;66.48;96439.71;620488;228;67048;-60
2023/08/31 03:43:22;;;;;;;;;;;;;;;24.96;66.16;96441.58;620467;228;63098;-59
2023/08/31 03:45:53;;;;;;;;;;;;;;;24.95;66.62;96430.05;620711;228;67683;-59
2023/08/31 03:48:20;;;;;;;;;;;;;;;24.96;66.73;96437.03;621826;227;64693;-60
2023/08/31 03:50:54;;;;;;;;;;;;;;;24.95;66.88;96432.73;619854;228;65062;-61
2023/08/31 03:53:23;;;;;;;;;;;;;;;24.95;66.84;96430.05;620353;228;67067;-59
2023/08/31 03:55:52;;;;;;;;;;;;;;;24.94;66.50;96428.47;620214;228;44310;-60
2023/08/31 03:58:19;;;;;;;;;;;;;;;24.94;66.34;96427.69;620273;228;62892;-59
2023/08/31 04:00:51;;;;;;;;;;;;;;;24.94;65.87;96433.84;620231;228;67812;-60
2023/08/31 04:03:18;;;;;;;;;;;;;;;24.94;66.06;96436.53;619916;229;67469;-61
2023/08/31 04:05:47;;;;;;;;;;;;;;;24.93;66.16;96440.31;619943;228;65173;-61
2023/08/31 04:08:15;;;;;;;;;;;;;;;24.94;66.39;96439.23;620376;227;67283;-61
2023/08/31 04:10:42;;;;;;;;;;;;;;;24.92;66.11;96443.32;619877;229;64553;-61
2023/08/31 04:13:10;;;;;;;;;;;;;;;24.92;65.96;96444.11;620628;228;65204;-61
2023/08/31 04:15:37;;;;;;;;;;;;;;;24.93;66.04;96452.96;621221;228;67283;-61
2023/08/31 04:18:05;;;;;;;;;;;;;;;24.93;66.40;96450.27;619941;229;64993;-61
2023/08/31 04:20:33;;;;;;;;;;;;;;;24.93;66.41;96448.38;619924;229;64945;-61
2023/08/31 04:23:01;;;;;;;;;;;;;;;24.92;66.30;96454.86;620086;228;67311;-61
2023/08/31 04:25:35;;;;;;;;;;;;;;;24.91;65.96;96453.29;620596;228;64781;-61
2023/08/31 04:27:59;;;;;;;;;;;;;;;24.92;66.47;96457.55;620957;227;65192;-61
2023/08/31 04:30:27;;;;;;;;;;;;;;;24.92;66.42;96465.61;620716;228;67116;-61
2023/08/31 04:32:54;;;;;;;;;;;;;;;24.92;66.31;96462.92;619907;228;66829;-61
2023/08/31 04:35:22;;;;;;;;;;;;;;;24.91;66.23;96457.84;619921;229;62630;-61
2023/08/31 04:37:49;;;;;;;;;;;;;;;24.93;66.37;96469.09;620725;228;64387;-58
2023/08/31 04:40:17;;;;;;;;;;;;;;;24.92;66.46;96475.58;620570;228;64407;-58
2023/08/31 04:42:44;;;;;;;;;;;;;;;24.92;66.27;96478.27;620284;228;64897;-61
2023/08/31 04:45:12;;;;;;;;;;;;;;;24.91;66.50;96482.03;619915;229;64518;-61
2023/08/31 04:47:39;;;;;;;;;;;;;;;24.91;66.48;96477.48;619875;229;64373;-60
2023/08/31 04:50:07;;;;;;;;;;;;;;;24.92;66.54;96480.95;619996;228;65100;-61
2023/08/31 04:52:35;;;;;;;;;;;;;;;24.91;66.50;96485.54;620539;228;64626;-61
2023/08/31 04:55:07;;;;;;;;;;;;;;;24.92;66.61;96489.80;614540;229;64583;-61
2023/08/31 04:57:32;;;;;;;;;;;;;;;24.91;66.59;96498.16;619632;229;63062;-61
2023/08/31 05:00:00;;;;;;;;;;;;;;;24.91;66.50;96504.36;620720;228;64933;-61
2023/08/31 05:02:28;;;;;;;;;;;;;;;24.91;66.68;96509.73;621911;227;67373;-61
2023/08/31 05:04:56;;;;;;;;;;;;;;;24.92;66.59;96521.27;620158;228;64836;-61
2023/08/31 05:07:23;;;;;;;;;;;;;;;24.91;66.46;96525.86;619945;229;67178;-61
2023/08/31 05:09:51;;;;;;;;;;;;;;;24.90;66.51;96518.87;620407;228;64981;-60
2023/08/31 05:12:18;;;;;;;;;;;;;;;24.90;66.14;96513.50;620085;228;63788;-61
2023/08/31 05:14:46;;;;;;;;;;;;;;;24.90;66.12;96518.87;620207;228;64735;-61
2023/08/31 05:17:13;;;;;;;;;;;;;;;24.91;66.43;96520.48;619851;229;64958;-61
2023/08/31 05:19:41;;;;;;;;;;;;;;;24.91;66.56;96525.04;619870;228;62781;-61
2023/08/31 05:22:08;;;;;;;;;;;;;;;24.90;66.63;96532.31;620441;228;64846;-61
2023/08/31 05:24:36;;;;;;;;;;;;;;;24.90;66.70;96532.31;620699;228;66636;-61
2023/08/31 05:27:04;;;;;;;;;;;;;;;24.90;66.70;96532.31;620783;228;62833;-61
2023/08/31 05:29:32;;;;;;;;;;;;;;;24.90;66.50;96531.53;621302;228;67141;-61
2023/08/31 05:31:59;;;;;;;;;;;;;;;24.90;66.53;96534.22;619918;228;67385;-64
2023/08/31 05:34:27;;;;;;;;;;;;;;;24.90;66.56;96534.22;620353;228;62439;-64
2023/08/31 05:36:54;;;;;;;;;;;;;;;24.89;66.42;96533.43;620028;228;64991;-64
2023/08/31 05:39:22;;;;;;;;;;;;;;;24.89;66.46;96528.05;622062;227;64984;-64
2023/08/31 05:41:49;;;;;;;;;;;;;;;24.90;66.65;96540.37;620051;227;62823;-64
2023/08/31 05:44:17;;;;;;;;;;;;;;;24.89;66.56;96538.80;619885;229;67065;-64
2023/08/31 05:46:44;;;;;;;;;;;;;;;24.89;66.61;96532.64;619889;229;66821;-64
2023/08/31 05:49:12;;;;;;;;;;;;;;;24.88;66.58;96534.55;620340;228;64838;-64
2023/08/31 05:51:39;;;;;;;;;;;;;;;24.89;66.59;96546.87;619954;228;66858;-64
2023/08/31 05:54:11;;;;;;;;;;;;;;;24.89;66.61;96543.39;620554;228;67604;-64
2023/08/31 05:56:37;;;;;;;;;;;;;;;24.88;66.65;96542.61;615618;228;64893;-64
2023/08/31 05:59:05;;;;;;;;;;;;;;;24.89;66.66;96552.25;615625;227;67588;-64
2023/08/31 06:01:32;;;;;;;;;;;;;;;24.89;66.65;96546.08;620508;228;67018;-66
2023/08/31 06:04:00;;;;;;;;;;;;;;;24.88;66.16;96545.30;620509;228;65098;-65
2023/08/31 06:06:27;;;;;;;;;;;;;;;24.88;66.09;96545.30;620523;228;64883;-65
2023/08/31 06:08:56;;;;;;;;;;;;;;;24.89;65.43;96554.93;619111;228;67123;-65
2023/08/31 06:11:24;;;;;;;;;;;;;;;24.90;65.35;96547.66;619584;226;65194;-65
2023/08/31 06:13:51;;;;;;;;;;;;;;;24.90;65.51;96551.13;620465;228;64822;-63
2023/08/31 06:16:19;;;;;;;;;;;;;;;24.91;65.64;96552.73;619640;229;64565;-63
2023/08/31 06:18:46;;;;;;;;;;;;;;;24.92;65.94;96556.21;619803;228;65301;-63
2023/08/31 06:21:14;;;;;;;;;;;;;;;24.90;66.15;96556.51;620278;228;67073;-64
2023/08/31 06:23:41;;;;;;;;;;;;;;;24.90;66.71;96553.82;619869;228;66920;-66
2023/08/31 06:26:09;;;;;;;;;;;;;;;24.91;66.71;96566.17;620556;228;65062;-66
2023/08/31 06:28:36;;;;;;;;;;;;;;;24.92;65.75;96562.38;619953;228;67060;-67
2023/08/31 06:31:04;;;;;;;;;;;;;;;24.93;66.49;96555.09;619807;229;66836;-64
2023/08/31 06:33:31;;;;;;;;;;;;;;;24.95;66.67;96569.83;620517;228;64880;-66
2023/08/31 06:35:59;;;;;;;;;;;;;;;24.96;67.47;96570.61;619846;228;64849;-67
2023/08/31 06:38:26;;;;;;;;;;;;;;;24.96;67.56;96567.92;620592;228;66817;-66
2023/08/31 06:40:58;;;;;;;;;;;;;;;24.95;67.33;96567.13;619871;228;62647;-65
2023/08/31 06:43:29;;;;;;;;;;;;;;;24.96;67.46;96573.30;620085;228;64834;-66
2023/08/31 06:45:57;;;;;;;;;;;;;;;24.96;67.75;96587.56;620055;228;67691;-65
2023/08/31 06:48:25;;;;;;;;;;;;;;;24.96;67.85;96579.50;619860;228;65014;-66
2023/08/31 06:50:52;;;;;;;;;;;;;;;24.97;68.06;96585.66;619855;228;66996;-66
2023/08/31 06:53:20;;;;;;;;;;;;;;;24.98;68.05;96595.30;620503;228;66775;-66
2023/08/31 06:55:48;;;;;;;;;;;;;;;24.97;68.29;96597.20;622135;227;65074;-66
2023/08/31 06:58:15;;;;;;;;;;;;;;;24.97;68.28;96588.34;624198;226;65083;-67
2023/08/31 07:00:43;;;;;;;;;;;;;;;24.98;68.32;96595.30;625626;226;64944;-66
2023/08/31 07:03:10;;;;;;;;;;;;;;;24.98;68.18;96598.77;625852;226;62814;-66
2023/08/31 07:05:39;;;;;;;;;;;;;;;24.97;68.33;96599.89;625562;226;66721;-66
2023/08/31 07:08:06;;;;;;;;;;;;;;;24.98;68.08;96593.40;625419;226;64783;-66
2023/08/31 07:10:39;;;;;;;;;;;;;;;24.98;68.47;96589.92;626623;226;62579;-66
2023/08/31 07:13:05;;;;;;;;;;;;;;;24.99;68.46;96607.63;625994;225;67315;-66
2023/08/31 07:15:33;;;;;;;;;;;;;;;24.99;68.23;96602.25;626709;226;67061;-65
2023/08/31 07:18:02;;;;;;;;;;;;;;;24.99;68.20;96604.94;626347;226;63645;-67
2023/08/31 07:20:29;;;;;;;;;;;;;;;25.00;67.96;96606.55;625742;226;67510;-67
2023/08/31 07:22:59;;;;;;;;;;;;;;;24.99;66.99;96608.45;626870;226;66782;-65
2023/08/31 07:25:28;;;;;;;;;;;;;;;24.99;67.26;96610.31;626159;225;65037;-65
2023/08/31 07:27:55;;;;;;;;;;;;;;;24.98;67.34;96617.59;626783;226;64799;-63
2023/08/31 07:30:23;;;;;;;;;;;;;;;25.00;67.56;96620.77;626577;226;64980;-64
2023/08/31 07:32:50;;;;;;;;;;;;;;;25.00;67.61;96623.47;625963;226;62778;-64
2023/08/31 07:35:18;;;;;;;;;;;;;;;25.00;67.92;96623.47;626722;226;67276;-64
2023/08/31 07:37:45;;;;;;;;;;;;;;;25.00;67.49;96618.09;627583;226;66981;-64
2023/08/31 07:40:12;;;;;;;;;;;;;;;25.03;62.97;96620.16;626675;226;64861;-64
2023/08/31 07:42:40;;;;;;;;;;;;;;;25.03;63.21;96620.16;626364;226;64980;-65
2023/08/31 07:45:08;;;;;;;;;;;;;;;25.04;63.39;96626.33;626415;223;64801;-62
2023/08/31 07:47:36;;;;;;;;;;;;;;;25.06;66.10;96626.81;626423;226;65111;-64
2023/08/31 07:50:06;;;;;;;;;;;;;;;25.06;63.35;96628.72;624928;226;46532;-64
2023/08/31 07:52:34;;;;;;;;;;;;;;;25.05;66.37;96622.55;626542;226;66768;-64
2023/08/31 07:55:01;;;;;;;;;;;;;;;25.05;67.92;96627.14;625676;226;62783;-64
2023/08/31 07:57:29;;;;;;;;;;;;;;;25.05;68.56;96624.45;625711;226;67063;-64
2023/08/31 07:59:56;;;;;;;;;;;;;;;25.03;68.63;96620.16;627383;226;68277;-65
2023/08/31 08:02:24;;;;;;;;;;;;;;;25.02;69.07;96607.04;623806;226;64876;-65
2023/08/31 08:04:51;;;;;;;;;;;;;;;25.01;68.94;96622.35;621768;226;67176;-65
2023/08/31 08:07:19;;;;;;;;;;;;;;;25.02;68.79;96623.17;627213;226;67022;-65
2023/08/31 08:09:47;;;;;;;;;;;;;;;25.02;68.81;96617.80;627014;226;64830;-65
2023/08/31 08:12:15;;;;;;;;;;;;;;;25.02;65.96;96610.52;625863;226;65746;-65
2023/08/31 08:14:42;;;;;;;;;;;;;;;25.03;68.21;96617.47;625872;226;66891;-65
2023/08/31 08:17:10;;;;;;;;;;;;;;;25.02;68.56;96623.96;627010;226;64870;-65
2023/08/31 08:19:38;;;;;;;;;;;;;;;25.02;68.31;96621.27;625742;226;66887;-65
2023/08/31 08:22:05;;;;;;;;;;;;;;;25.03;68.47;96625.53;626527;226;65050;-65
2023/08/31 08:24:33;;;;;;;;;;;;;;;25.03;68.53;96632.81;626729;226;64807;-65
2023/08/31 08:27:00;;;;;;;;;;;;;;;25.02;68.78;96633.92;626855;226;68123;-65
2023/08/31 08:29:28;;;;;;;;;;;;;;;25.03;69.01;96632.81;625646;226;67012;-65
2023/08/31 08:31:55;;;;;;;;;;;;;;;25.03;68.97;96635.50;626022;226;64851;-65
2023/08/31 08:34:23;;;;;;;;;;;;;;;25.02;69.14;96637.41;626627;226;67033;-65
2023/08/31 08:36:50;;;;;;;;;;;;;;;25.02;69.02;96632.02;625163;226;66834;-65
2023/08/31 08:39:18;;;;;;;;;;;;;;;25.02;69.00;96633.92;626532;226;62661;-66
2023/08/31 08:41:45;;;;;;;;;;;;;;;25.02;68.96;96637.41;627288;226;64587;-65
2023/08/31 08:44:14;;;;;;;;;;;;;;;25.02;68.82;96639.30;625185;226;64361;-65
2023/08/31 08:46:42;;;;;;;;;;;;;;;25.02;68.72;96644.68;625507;226;64640;-66
2023/08/31 08:49:10;;;;;;;;;;;;;;;25.01;68.75;96654.61;626379;226;66720;-66
2023/08/31 08:51:38;;;;;;;;;;;;;;;25.01;68.91;96654.61;625795;226;64488;-66
2023/08/31 08:54:05;;;;;;;;;;;;;;;25.01;68.61;96643.86;626453;226;62588;-64
2023/08/31 08:56:34;;;;;;;;;;;;;;;25.00;68.66;96636.91;626438;226;64315;-65
2023/08/31 08:59:02;;;;;;;;;;;;;;;25.00;68.72;96642.28;627150;226;66910;-63
2023/08/31 09:01:30;;;;;;;;;;;;;;;25.00;68.55;96653.03;627043;226;65030;-63
2023/08/31 09:03:57;;;;;;;;;;;;;;;25.01;68.45;96643.86;626460;226;64593;-63
2023/08/31 09:06:27;;;;;;;;;;;;;;;25.01;68.24;96637.70;626675;226;65208;-64
2023/08/31 09:08:57;;;;;;;;;;;;;;;25.02;64.73;96644.68;626102;226;62725;-65
2023/08/31 09:11:26;;;;;;;;;;;;;;;25.06;67.20;96642.16;626737;226;67449;-65
2023/08/31 09:13:54;;;;;;;;;;;;;;;25.07;67.08;96638.36;627136;226;65394;-65
2023/08/31 09:16:28;;;;;;;;;;;;;;;25.08;67.51;96642.66;625847;226;64945;-65
2023/08/31 09:18:56;;;;;;;;;;;;;;;25.09;67.39;96649.61;626327;226;64831;-64
2023/08/31 09:21:25;;;;;;;;;;;;;;;25.08;67.80;96650.72;626686;226;64944;-66
2023/08/31 09:23:58;;;;;;;;;;;;;;;25.07;64.64;96635.67;625647;225;62805;-67
2023/08/31 09:26:26;;;;;;;;;;;;;;;25.07;66.92;96635.67;625348;226;67082;-65
2023/08/31 09:28:53;;;;;;;;;;;;;;;25.05;67.19;96636.00;623597;227;66981;-66
2023/08/31 09:31:21;;;;;;;;;;;;;;;25.04;66.73;96639.77;623639;227;62950;-66
2023/08/31 09:33:52;;;;;;;;;;;;;;;25.07;62.19;96638.36;626755;226;65360;-65
2023/08/31 09:36:22;;;;;;;;;;;;;;;25.07;64.57;96630.30;625451;226;66766;-65
2023/08/31 09:38:50;;;;;;;;;;;;;;;25.06;66.06;96634.89;625492;226;63142;-66
2023/08/31 09:41:17;;;;;;;;;;;;;;;25.07;61.35;96636.46;626505;226;67253;-65
2023/08/31 09:43:45;;;;;;;;;;;;;;;25.07;62.05;96628.39;626162;226;66913;-65
2023/08/31 09:46:13;;;;;;;;;;;;;;;25.08;66.29;96629.22;626385;226;65023;-66
2023/08/31 09:48:42;;;;;;;;;;;;;;;25.05;66.62;96627.93;626277;226;67163;-66
2023/08/31 09:51:14;;;;;;;;;;;;;;;25.05;67.05;96622.55;624749;226;64781;-65
2023/08/31 09:53:42;;;;;;;;;;;;;;;25.05;67.36;96635.20;625302;226;64905;-65
2023/08/31 09:56:11;;;;;;;;;;;;;;;25.04;67.37;96637.08;626694;226;67305;-65
2023/08/31 09:58:38;;;;;;;;;;;;;;;25.04;67.62;96642.45;627725;225;66899;-65
2023/08/31 10:01:06;;;;;;;;;;;;;;;25.03;67.75;96633.60;627432;226;63076;-66
2023/08/31 10:03:33;;;;;;;;;;;;;;;25.03;67.77;96636.29;626706;226;64828;-66
2023/08/31 10:06:01;;;;;;;;;;;;;;;25.03;67.91;96632.81;626640;226;64752;-65
2023/08/31 10:08:31;;;;;;;;;;;;;;;25.03;67.98;96635.50;625704;226;62970;-65
2023/08/31 10:11:03;;;;;;;;;;;;;;;25.03;67.96;96638.98;626584;226;67206;-65
2023/08/31 10:13:31;;;;;;;;;;;;;;;25.03;68.14;96641.67;625526;225;66933;-65
2023/08/31 10:15:59;;;;;;;;;;;;;;;25.03;68.36;96647.05;626279;226;65119;-67
2023/08/31 10:18:27;;;;;;;;;;;;;;;25.03;68.13;96638.19;625825;226;67044;-66
2023/08/31 10:20:55;;;;;;;;;;;;;;;25.02;68.08;96634.71;625573;226;66594;-65
2023/08/31 10:23:22;;;;;;;;;;;;;;;25.03;67.89;96641.67;625963;225;65105;-65
2023/08/31 10:25:54;;;;;;;;;;;;;;;25.02;68.37;96634.71;626636;226;67137;-66
2023/08/31 10:28:23;;;;;;;;;;;;;;;25.02;68.17;96637.41;625872;226;67332;-65
2023/08/31 10:31:06;;;;;;;;;;;;;;;25.03;68.19;96644.36;626078;226;64916;-66
2023/08/31 10:33:47;;;;;;;;;;;;;;;25.02;68.14;96645.47;626531;226;67272;-66
2023/08/31 10:36:16;;;;;;;;;;;;;;;25.03;68.12;96638.98;624769;226;64502;-66
2023/08/31 10:38:45;;;;;;;;;;;;;;;25.03;67.98;96638.19;626677;226;65202;-65
2023/08/31 10:41:15;;;;;;;;;;;;;;;25.02;68.20;96625.86;625180;226;67088;-66
2023/08/31 10:43:46;;;;;;;;;;;;;;;25.02;68.12;96623.96;626053;226;67055;-66
2023/08/31 10:46:28;;;;;;;;;;;;;;;25.01;68.01;96633.11;627755;226;65026;-66
2023/08/31 10:48:56;;;;;;;;;;;;;;;25.03;67.71;96635.50;626419;226;64657;-66
2023/08/31 10:51:25;;;;;;;;;;;;;;;25.05;68.21;96635.20;626778;226;65642;-67
2023/08/31 10:53:53;;;;;;;;;;;;;;;25.03;68.36;96641.67;626223;226;65157;-66
2023/08/31 10:56:20;;;;;;;;;;;;;;;25.02;68.74;96642.78;626937;226;67220;-66
2023/08/31 10:58:59;;;;;;;;;;;;;;;25.02;69.11;96642.78;627191;226;67109;-67
2023/08/31 11:01:44;;;;;;;;;;;;;;;25.02;68.77;96642.78;626727;226;62719;-66
2023/08/31 11:04:12;;;;;;;;;;;;;;;25.03;68.48;96635.50;627401;226;67212;-66
2023/08/31 11:06:39;;;;;;;;;;;;;;;25.03;67.98;96630.13;626799;226;67081;-65
2023/08/31 11:09:07;;;;;;;;;;;;;;;25.02;67.90;96634.71;625935;226;64934;-65
2023/08/31 11:11:40;;;;;;;;;;;;;;;25.04;68.12;96637.08;626996;226;66986;-66
2023/08/31 11:14:09;;;;;;;;;;;;;;;25.03;68.32;96630.91;625610;226;66702;-65
2023/08/31 11:16:38;;;;;;;;;;;;;;;25.03;68.16;96630.91;623364;226;62735;-66
2023/08/31 11:19:06;;;;;;;;;;;;;;;25.03;68.39;96628.23;623872;226;67022;-64
2023/08/31 11:21:34;;;;;;;;;;;;;;;25.03;64.64;96620.16;621644;226;66988;-63
2023/08/31 11:24:02;;;;;;;;;;;;;;;25.06;67.63;96629.51;623483;225;65010;-64
2023/08/31 11:26:31;;;;;;;;;;;;;;;25.05;66.66;96619.87;622574;224;69155;-63
2023/08/31 11:28:58;;;;;;;;;;;;;;;25.05;67.76;96621.77;621183;225;67090;-64
2023/08/31 11:31:26;;;;;;;;;;;;;;;25.06;67.45;96618.75;619883;228;65100;-64
2023/08/31 11:33:56;;;;;;;;;;;;;;;25.06;67.76;96616.06;619440;228;67050;-64
2023/08/31 11:36:25;;;;;;;;;;;;;;;25.06;67.59;96612.59;619947;228;66783;-64
2023/08/31 11:38:53;;;;;;;;;;;;;;;25.06;68.07;96604.52;619595;229;65953;-64
2023/08/31 11:41:20;;;;;;;;;;;;;;;25.06;68.71;96607.21;619537;229;67204;-63
2023/08/31 11:43:48;;;;;;;;;;;;;;;25.05;68.49;96603.73;619365;229;67541;-59
2023/08/31 11:46:17;;;;;;;;;;;;;;;25.05;69.10;96600.26;620386;227;64780;-59
2023/08/31 11:48:45;;;;;;;;;;;;;;;25.05;68.20;96601.05;620419;228;64913;-59
2023/08/31 11:51:12;;;;;;;;;;;;;;;25.05;67.71;96602.95;620059;228;65076;-59
2023/08/31 11:53:40;;;;;;;;;;;;;;;25.05;67.28;96594.87;620376;228;65201;-59
2023/08/31 11:56:07;;;;;;;;;;;;;;;25.06;68.05;96593.77;621444;227;64822;-61
2023/08/31 11:58:36;;;;;;;;;;;;;;;25.06;69.10;96591.08;620522;227;66900;-62
2023/08/31 12:01:04;;;;;;;;;;;;;;;25.05;67.75;96595.67;619784;228;66048;-62
2023/08/31 12:03:33;;;;;;;;;;;;;;;25.06;68.36;96589.18;620452;228;66693;-63
2023/08/31 12:06:03;;;;;;;;;;;;;;;25.06;67.47;96585.70;619456;228;66855;-64
2023/08/31 12:08:30;;;;;;;;;;;;;;;25.07;66.30;96587.28;620231;228;65157;-64
2023/08/31 12:10:59;;;;;;;;;;;;;;;25.07;66.40;96593.45;620509;228;65059;-64
2023/08/31 12:13:28;;;;;;;;;;;;;;;25.08;67.48;96595.05;620257;228;64396;-64
2023/08/31 12:15:58;;;;;;;;;;;;;;;25.08;67.67;96586.20;620189;228;65038;-63
2023/08/31 12:18:25;;;;;;;;;;;;;;;25.08;68.02;96578.92;621296;228;64777;-62
2023/08/31 12:20:53;;;;;;;;;;;;;;;25.08;68.25;96586.98;619804;228;66777;-64
2023/08/31 12:23:23;;;;;;;;;;;;;;;25.08;68.25;96586.20;619899;229;63012;-63
2023/08/31 12:25:52;;;;;;;;;;;;;;;25.08;67.96;96580.82;620607;228;64926;-64
2023/08/31 12:28:20;;;;;;;;;;;;;;;25.07;67.78;96585.38;619952;228;66920;-63
2023/08/31 12:30:52;;;;;;;;;;;;;;;25.08;68.15;96575.44;620434;228;62592;-63
2023/08/31 12:33:20;;;;;;;;;;;;;;;25.08;67.86;96583.52;620422;228;67203;-64
2023/08/31 12:35:48;;;;;;;;;;;;;;;25.07;67.14;96585.38;619907;228;64791;-66
2023/08/31 12:38:15;;;;;;;;;;;;;;;25.08;67.60;96572.75;620038;228;62746;-65
2023/08/31 12:40:43;;;;;;;;;;;;;;;25.08;68.17;96578.92;620039;228;67121;-64
2023/08/31 12:43:10;;;;;;;;;;;;;;;25.08;67.64;96578.92;619855;229;64897;-64
2023/08/31 12:45:38;;;;;;;;;;;;;;;25.07;67.75;96580.00;620313;228;63007;-65
2023/08/31 12:48:06;;;;;;;;;;;;;;;25.09;67.67;96580.50;620418;228;67066;-64
2023/08/31 12:50:33;;;;;;;;;;;;;;;25.09;67.71;96587.77;620027;228;66367;-66
2023/08/31 12:53:00;;;;;;;;;;;;;;;25.09;67.46;96580.50;619765;229;65027;-65